createdAt,value
2022-09-20T00:01:16.390Z,2.13
2022-09-20T00:03:45.728Z,2.37
2022-09-20T00:06:15.030Z,2.40
2022-09-20T00:08:43.006Z,2.60
2022-09-20T00:11:16.060Z,2.45
2022-09-20T00:13:44.427Z,2.53
2022-09-20T00:16:14.890Z,2.57
2022-09-20T00:18:41.838Z,3.10
2022-09-20T00:21:16.492Z,2.22
2022-09-20T00:23:43.175Z,2.80
2022-09-20T00:26:09.660Z,2.45
2022-09-20T00:28:36.262Z,2.20
2022-09-20T00:31:03.332Z,1.55
2022-09-20T00:33:49.756Z,1.90
2022-09-20T00:36:16.644Z,1.73
2022-09-20T00:38:43.199Z,2.00
2022-09-20T00:41:09.978Z,2.60
2022-09-20T00:43:42.578Z,2.17
2022-09-20T00:46:29.415Z,3.08
2022-09-20T00:49:01.440Z,2.22
2022-09-20T00:51:34.838Z,2.42
2022-09-20T00:54:04.884Z,2.73
2022-09-20T00:56:34.758Z,2.30
2022-09-20T00:59:19.891Z,2.85
2022-09-20T01:01:47.453Z,2.55
2022-09-20T01:04:16.667Z,2.08
2022-09-20T01:06:46.081Z,2.57
2022-09-20T01:09:12.685Z,2.45
2022-09-20T01:11:40.593Z,1.73
2022-09-20T01:14:07.663Z,1.92
2022-09-20T01:16:34.982Z,1.83
2022-09-20T01:19:08.313Z,1.80
2022-09-20T01:21:34.930Z,1.38
2022-09-20T01:24:11.421Z,2.03
2022-09-20T01:26:59.020Z,1.10
2022-09-20T01:29:37.709Z,1.23
2022-09-20T01:32:11.725Z,1.10
2022-09-20T01:34:46.191Z,1.10
2022-09-20T01:37:33.152Z,0.80
2022-09-20T01:40:36.797Z,1.20
2022-09-20T01:43:21.683Z,1.27
2022-09-20T01:45:49.802Z,0.90
2022-09-20T01:48:22.288Z,1.25
2022-09-20T01:51:25.055Z,1.50
2022-09-20T01:54:12.591Z,1.05
2022-09-20T01:57:03.701Z,1.00
2022-09-20T01:59:54.769Z,0.80
2022-09-20T02:02:32.700Z,1.02
2022-09-20T02:05:20.936Z,0.93
2022-09-20T02:07:58.969Z,1.85
2022-09-20T02:10:50.105Z,1.58
2022-09-20T02:13:28.411Z,1.20
2022-09-20T02:16:25.264Z,1.92
2022-09-20T02:18:57.932Z,2.00
2022-09-20T02:21:50.775Z,2.05
2022-09-20T02:24:29.909Z,1.88
2022-09-20T02:27:23.180Z,2.60
2022-09-20T02:30:14.693Z,2.45
2022-09-20T02:32:58.421Z,2.40
2022-09-20T02:35:47.205Z,2.42
2022-09-20T02:38:34.145Z,2.55
2022-09-20T02:41:29.704Z,2.60
2022-09-20T02:44:04.257Z,2.78
2022-09-20T02:46:41.151Z,2.00
2022-09-20T02:49:28.752Z,2.38
2022-09-20T02:52:01.381Z,2.60
2022-09-20T02:54:58.801Z,2.20
2022-09-20T02:57:37.061Z,2.03
2022-09-20T03:00:13.143Z,1.77
2022-09-20T03:02:51.437Z,2.28
2022-09-20T03:05:33.045Z,2.92
2022-09-20T03:08:18.350Z,1.70
2022-09-20T03:10:53.904Z,2.10
2022-09-20T03:13:42.112Z,1.98
2022-09-20T03:16:21.422Z,1.90
2022-09-20T03:19:03.093Z,2.22
2022-09-20T03:21:41.505Z,2.40
2022-09-20T03:24:34.503Z,2.30
2022-09-20T03:27:24.475Z,2.28
2022-09-20T03:30:15.130Z,2.38
2022-09-20T03:32:53.740Z,2.50
2022-09-20T03:36:01.200Z,2.47
2022-09-20T03:38:48.381Z,2.60
2022-09-20T03:41:36.865Z,2.60
2022-09-20T03:44:34.464Z,2.33
2022-09-20T03:47:19.729Z,2.35
2022-09-20T03:49:59.298Z,2.40
2022-09-20T03:52:54.774Z,2.20
2022-09-20T03:55:32.883Z,2.65
2022-09-20T03:58:19.380Z,2.15
2022-09-20T04:01:28.019Z,3.00
2022-09-20T04:04:19.565Z,2.83
2022-09-20T04:07:09.133Z,1.95
2022-09-20T04:10:16.586Z,2.70
2022-09-20T04:13:02.002Z,2.60
2022-09-20T04:15:54.923Z,2.35
2022-09-20T04:18:50.368Z,2.40
2022-09-20T04:21:28.978Z,2.90
2022-09-20T04:24:24.025Z,2.50
2022-09-20T04:27:00.491Z,2.60
2022-09-20T04:29:39.213Z,2.80
2022-09-20T04:32:27.887Z,2.87
2022-09-20T04:35:19.193Z,2.80
2022-09-20T04:37:47.506Z,2.58
2022-09-20T04:40:22.195Z,2.17
2022-09-20T04:43:10.058Z,3.00
2022-09-20T04:45:58.295Z,2.33
2022-09-20T04:48:56.572Z,2.28
2022-09-20T04:52:10.301Z,2.35
2022-09-20T04:54:54.747Z,2.20
2022-09-20T04:57:48.966Z,2.00
2022-09-20T05:00:19.312Z,2.20
2022-09-20T05:03:16.543Z,2.67
2022-09-20T05:06:28.146Z,2.60
2022-09-20T05:09:23.856Z,2.42
2022-09-20T05:11:57.809Z,2.42
2022-09-20T05:14:40.915Z,2.30
2022-09-20T05:17:45.971Z,2.30
2022-09-20T05:20:25.268Z,1.90
2022-09-20T05:23:14.502Z,2.22
2022-09-20T05:25:56.502Z,2.80
2022-09-20T05:28:31.510Z,2.77
2022-09-20T05:31:04.851Z,2.67
2022-09-20T05:33:37.318Z,2.35
2022-09-20T05:36:03.759Z,2.45
2022-09-20T05:38:42.792Z,2.45
2022-09-20T05:41:18.729Z,2.33
2022-09-20T05:44:02.175Z,2.03
2022-09-20T05:46:49.494Z,2.38
2022-09-20T05:49:25.062Z,2.90
2022-09-20T05:52:09.889Z,2.85
2022-09-20T05:54:47.559Z,2.60
2022-09-20T05:57:32.865Z,2.38
2022-09-20T06:00:08.526Z,2.50
2022-09-20T06:02:43.614Z,2.60
2022-09-20T06:05:25.223Z,3.33
2022-09-20T06:08:24.301Z,2.80
2022-09-20T06:11:12.694Z,3.17
2022-09-20T06:14:15.168Z,4.07
2022-09-20T06:16:47.991Z,3.22
2022-09-20T06:19:36.947Z,3.78
2022-09-20T06:22:24.933Z,3.80
2022-09-20T06:25:09.780Z,2.92
2022-09-20T06:27:43.436Z,3.30
2022-09-20T06:30:20.122Z,3.15
2022-09-20T06:33:10.209Z,3.10
2022-09-20T06:35:45.290Z,3.53
2022-09-20T06:38:41.839Z,3.10
2022-09-20T06:41:30.654Z,3.25
2022-09-20T06:43:59.121Z,2.95
2022-09-20T06:46:30.850Z,4.00
2022-09-20T06:48:58.205Z,3.00
2022-09-20T06:51:27.430Z,2.88
2022-09-20T06:53:56.043Z,2.70
2022-09-20T06:56:26.724Z,2.90
2022-09-20T06:58:54.100Z,3.30
2022-09-20T07:01:29.729Z,2.20
2022-09-20T07:03:57.586Z,3.40
2022-09-20T07:06:24.173Z,3.08
2022-09-20T07:08:50.913Z,2.70
2022-09-20T07:11:18.068Z,2.90
2022-09-20T07:13:45.568Z,3.77
2022-09-20T07:16:16.562Z,3.10
2022-09-20T07:18:43.211Z,3.50
2022-09-20T07:21:17.836Z,2.40
2022-09-20T07:23:48.669Z,3.30
2022-09-20T07:26:20.349Z,2.97
2022-09-20T07:28:47.204Z,2.13
2022-09-20T07:31:14.013Z,2.80
2022-09-20T07:33:40.699Z,2.92
2022-09-20T07:36:07.448Z,12.48
2022-09-20T07:38:34.026Z,1.93
2022-09-20T07:41:02.394Z,2.30
2022-09-20T07:43:31.000Z,1.67
2022-09-20T07:45:59.409Z,1.60
2022-09-20T07:48:36.960Z,1.85
2022-09-20T07:51:12.886Z,2.20
2022-09-20T07:53:40.172Z,1.90
2022-09-20T07:56:08.048Z,1.95
2022-09-20T07:58:35.806Z,1.30
2022-09-20T08:01:09.214Z,1.40
2022-09-20T08:03:36.226Z,1.43
2022-09-20T08:06:08.601Z,1.13
2022-09-20T08:08:36.975Z,0.90
2022-09-20T08:11:06.767Z,1.23
2022-09-20T08:16:29.064Z,1.00
2022-09-20T08:19:00.958Z,1.02
2022-09-20T08:21:31.542Z,1.00
2022-09-20T08:23:59.590Z,1.38
2022-09-20T08:26:27.802Z,1.20
2022-09-20T08:28:56.176Z,1.30
2022-09-20T08:31:25.502Z,1.40
2022-09-20T08:33:53.023Z,1.40
2022-09-20T08:36:22.089Z,1.10
2022-09-20T08:41:46.012Z,1.00
2022-09-20T08:44:27.896Z,1.17
2022-09-20T08:47:25.065Z,1.10
2022-09-20T08:49:57.684Z,1.00
2022-09-20T08:52:37.012Z,1.15
2022-09-20T08:55:17.924Z,1.07
2022-09-20T08:57:49.137Z,1.27
2022-09-20T09:00:19.312Z,1.60
2022-09-20T09:02:46.857Z,1.50
2022-09-20T09:05:31.694Z,1.00
2022-09-20T09:08:00.762Z,1.47
2022-09-20T09:10:54.091Z,1.10
2022-09-20T09:13:33.119Z,0.80
2022-09-20T09:16:03.282Z,2.25
2022-09-20T09:18:39.306Z,1.50
2022-09-20T09:21:08.615Z,1.60
2022-09-20T09:23:49.504Z,1.23
2022-09-20T09:26:22.704Z,1.83
2022-09-20T09:29:16.955Z,1.77
2022-09-20T09:31:45.283Z,1.50
2022-09-20T09:34:25.140Z,1.23
2022-09-20T09:36:51.953Z,1.60
2022-09-20T09:39:29.078Z,0.90
2022-09-20T09:41:56.518Z,1.40
2022-09-20T09:44:25.712Z,1.65
2022-09-20T09:46:53.665Z,1.80
2022-09-20T09:49:36.256Z,1.42
2022-09-20T09:52:24.581Z,0.90
2022-09-20T09:54:55.189Z,1.15
2022-09-20T09:58:06.549Z,1.52
2022-09-20T10:00:35.776Z,0.80
2022-09-20T10:03:05.157Z,1.30
2022-09-20T10:06:14.831Z,0.90
2022-09-20T10:08:51.107Z,1.30
2022-09-20T10:11:28.568Z,0.98
2022-09-20T10:14:12.586Z,0.83
2022-09-20T10:16:41.797Z,1.67
2022-09-20T10:19:34.717Z,1.33
2022-09-20T10:22:34.277Z,0.90
2022-09-20T10:25:00.712Z,0.90
2022-09-20T10:28:07.327Z,0.80
2022-09-20T10:30:58.372Z,0.90
2022-09-20T10:33:34.361Z,0.70
2022-09-20T10:36:13.150Z,0.93
2022-09-20T10:39:01.253Z,0.90
2022-09-20T10:42:04.714Z,1.83
2022-09-20T10:44:58.111Z,1.55
2022-09-20T10:47:33.213Z,1.40
2022-09-20T10:50:12.004Z,1.20
2022-09-20T10:53:17.089Z,1.10
2022-09-20T10:56:08.400Z,0.80
2022-09-20T10:59:12.316Z,0.93
2022-09-20T11:01:41.837Z,0.90
2022-09-20T11:04:38.487Z,1.40
2022-09-20T11:07:32.885Z,0.95
2022-09-20T11:10:04.956Z,1.60
2022-09-20T11:12:39.794Z,0.80
2022-09-20T11:15:19.168Z,0.90
2022-09-20T11:18:05.997Z,1.63
2022-09-20T11:20:47.570Z,0.85
2022-09-20T11:23:22.616Z,0.80
2022-09-20T11:26:04.894Z,0.80
2022-09-20T11:28:37.554Z,0.80
2022-09-20T11:31:55.641Z,0.95
2022-09-20T11:34:37.557Z,1.00
2022-09-20T11:37:04.208Z,0.80
2022-09-20T11:39:42.436Z,0.90
2022-09-20T11:42:16.443Z,0.90
2022-09-20T11:44:43.508Z,0.75
2022-09-20T11:47:50.339Z,1.02
2022-09-20T11:51:00.635Z,0.80
2022-09-20T11:53:45.869Z,0.85
2022-09-20T11:56:15.457Z,0.80
2022-09-20T11:58:48.319Z,0.95
2022-09-20T12:01:28.232Z,1.00
2022-09-20T12:04:30.549Z,0.73
2022-09-20T12:06:58.657Z,3.58
2022-09-20T12:09:42.393Z,5.78
2022-09-20T12:12:33.703Z,1.20
2022-09-20T12:15:03.034Z,1.02
2022-09-20T12:17:52.594Z,1.10
2022-09-20T12:20:44.892Z,0.90
2022-09-20T12:23:39.432Z,0.93
2022-09-20T12:26:07.682Z,0.98
2022-09-20T12:28:40.014Z,0.93
2022-09-20T12:31:21.933Z,0.87
2022-09-20T12:34:24.597Z,0.95
2022-09-20T12:36:53.677Z,0.68
2022-09-20T12:39:30.068Z,0.73
2022-09-20T12:42:12.130Z,0.90
2022-09-20T12:44:38.653Z,0.80
2022-09-20T12:47:11.149Z,0.70
2022-09-20T12:50:05.219Z,0.88
2022-09-20T12:52:53.371Z,0.90
2022-09-20T12:55:29.999Z,1.00
2022-09-20T12:58:06.439Z,0.83
2022-09-20T13:00:41.971Z,0.82
2022-09-20T13:03:21.157Z,1.00
2022-09-20T13:05:52.640Z,0.93
2022-09-20T13:08:25.956Z,1.52
2022-09-20T13:11:09.195Z,1.07
2022-09-20T13:13:35.633Z,1.27
2022-09-20T13:16:06.028Z,1.20
2022-09-20T13:18:36.148Z,1.10
2022-09-20T13:21:07.248Z,1.65
2022-09-20T13:23:45.452Z,0.90
2022-09-20T13:26:13.805Z,1.23
2022-09-20T13:28:51.507Z,1.10
2022-09-20T13:31:21.109Z,0.90
2022-09-20T13:33:49.123Z,1.27
2022-09-20T13:36:27.666Z,0.90
2022-09-20T13:38:57.015Z,0.80
2022-09-20T13:41:27.560Z,1.25
2022-09-20T13:43:54.195Z,2.42
2022-09-20T13:46:29.831Z,1.10
2022-09-20T13:49:20.730Z,0.90
2022-09-20T13:51:48.883Z,1.02
2022-09-20T13:54:29.390Z,0.70
2022-09-20T13:57:02.452Z,1.00
2022-09-20T13:59:40.500Z,1.00
2022-09-20T14:02:19.516Z,0.83
2022-09-20T14:04:46.709Z,0.85
2022-09-20T14:07:15.131Z,1.23
2022-09-20T14:09:41.789Z,0.93
2022-09-20T14:12:11.336Z,0.93
2022-09-20T14:14:39.102Z,0.90
2022-09-20T14:17:09.571Z,0.65
2022-09-20T14:19:41.407Z,1.00
2022-09-20T14:22:22.880Z,1.05
2022-09-20T14:25:13.420Z,1.00
2022-09-20T14:27:40.850Z,1.20
2022-09-20T14:30:27.681Z,1.15
2022-09-20T14:32:56.536Z,0.95
2022-09-20T14:35:23.479Z,0.63
2022-09-20T14:37:53.129Z,0.73
2022-09-20T14:40:40.792Z,1.20
2022-09-20T14:43:20.905Z,0.80
2022-09-20T14:45:56.998Z,0.68
2022-09-20T14:48:23.576Z,0.90
2022-09-20T14:51:09.659Z,0.80
2022-09-20T14:53:38.229Z,0.63
2022-09-20T14:56:04.881Z,0.80
2022-09-20T14:58:32.404Z,0.80
2022-09-20T15:01:07.216Z,1.17
2022-09-20T15:03:41.566Z,0.63
2022-09-20T15:06:12.818Z,0.90
2022-09-20T15:08:45.419Z,0.60
2022-09-20T15:11:14.645Z,0.82
2022-09-20T15:13:41.455Z,0.93
2022-09-20T15:16:08.108Z,0.70
2022-09-20T15:18:41.211Z,0.57
2022-09-20T15:21:07.998Z,0.70
2022-09-20T15:23:35.629Z,0.70
2022-09-20T15:26:02.195Z,0.60
2022-09-20T15:28:29.125Z,0.82
2022-09-20T15:30:58.589Z,1.03
2022-09-20T15:33:25.607Z,0.47
2022-09-20T15:35:52.211Z,0.68
2022-09-20T15:38:19.578Z,0.77
2022-09-20T15:40:48.916Z,0.70
2022-09-20T15:43:19.537Z,0.70
2022-09-20T15:45:51.589Z,0.60
2022-09-20T15:48:22.895Z,0.50
2022-09-20T15:51:02.409Z,0.88
2022-09-20T15:53:37.031Z,1.15
2022-09-20T15:56:13.610Z,0.67
2022-09-20T15:58:46.179Z,0.50
2022-09-20T16:01:16.690Z,0.90
2022-09-20T16:03:45.100Z,0.60
2022-09-20T16:06:13.279Z,0.60
2022-09-20T16:08:41.928Z,0.70
2022-09-20T16:11:12.606Z,0.70
2022-09-20T16:13:39.371Z,0.60
2022-09-20T16:16:08.616Z,0.73
2022-09-20T16:18:55.066Z,0.50
2022-09-20T16:21:21.926Z,0.60
2022-09-20T16:23:53.694Z,0.70
2022-09-20T16:26:22.484Z,0.80
2022-09-20T16:28:49.255Z,0.50
2022-09-20T16:31:36.828Z,0.50
2022-09-20T16:34:05.968Z,0.67
2022-09-20T16:36:33.460Z,0.95
2022-09-20T16:39:01.206Z,0.70
2022-09-20T16:41:28.685Z,0.88
2022-09-20T16:43:55.633Z,1.00
2022-09-20T16:46:27.218Z,0.73
2022-09-20T16:49:00.257Z,0.85
2022-09-20T16:51:34.650Z,0.65
2022-09-20T16:54:02.871Z,0.95
2022-09-20T16:56:33.953Z,0.73
2022-09-20T16:59:05.405Z,0.83
2022-09-20T17:01:32.262Z,0.95
2022-09-20T17:03:59.158Z,0.73
2022-09-20T17:06:25.841Z,0.80
2022-09-20T17:08:58.811Z,1.15
2022-09-20T17:11:27.990Z,0.90
2022-09-20T17:13:55.849Z,1.17
2022-09-20T17:16:27.885Z,1.25
2022-09-20T17:18:56.759Z,0.95
2022-09-20T17:21:23.298Z,1.50
2022-09-20T17:23:55.103Z,1.30
2022-09-20T17:26:27.583Z,1.70
2022-09-20T17:28:59.057Z,1.20
2022-09-20T17:31:33.694Z,1.02
2022-09-20T17:34:02.224Z,0.75
2022-09-20T17:36:31.625Z,1.00
2022-09-20T17:39:03.855Z,0.70
2022-09-20T17:41:32.799Z,1.25
2022-09-20T17:44:00.756Z,1.65
2022-09-20T17:46:31.849Z,1.27
2022-09-20T17:49:04.680Z,0.90
2022-09-20T17:51:34.751Z,0.88
2022-09-20T17:54:02.597Z,1.00
2022-09-20T17:56:31.052Z,1.02
2022-09-20T17:58:59.136Z,0.80
2022-09-20T18:01:27.341Z,0.80
2022-09-20T18:03:56.396Z,0.80
2022-09-20T18:06:26.691Z,0.70
2022-09-20T18:08:58.676Z,1.15
2022-09-20T18:11:33.412Z,1.23
2022-09-20T18:14:01.492Z,1.20
2022-09-20T18:16:28.196Z,1.40
2022-09-20T18:18:54.863Z,1.50
2022-09-20T18:21:24.036Z,1.45
2022-09-20T18:23:52.103Z,1.85
2022-09-20T18:26:24.651Z,2.13
2022-09-20T18:29:04.768Z,1.50
2022-09-20T18:31:46.260Z,1.60
2022-09-20T18:34:18.453Z,2.20
2022-09-20T18:36:54.177Z,3.65
2022-09-20T18:39:25.729Z,2.53
2022-09-20T18:41:53.305Z,2.80
2022-09-20T18:44:21.585Z,2.45
2022-09-20T18:46:49.218Z,1.90
2022-09-20T18:49:16.988Z,2.15
2022-09-20T18:51:44.636Z,2.90
2022-09-20T18:54:11.907Z,2.80
2022-09-20T18:56:43.243Z,2.88
2022-09-20T18:59:21.936Z,3.40
2022-09-20T19:01:54.526Z,3.50
2022-09-20T19:04:46.145Z,2.93
2022-09-20T19:07:28.064Z,3.10
2022-09-20T19:10:08.756Z,2.70
2022-09-20T19:12:50.422Z,3.15
2022-09-20T19:15:35.720Z,3.95
2022-09-20T19:18:11.291Z,3.40
2022-09-20T19:20:52.039Z,3.10
2022-09-20T19:23:36.867Z,2.65
2022-09-20T19:26:22.464Z,2.75
2022-09-20T19:28:51.179Z,2.83
2022-09-20T19:31:29.152Z,2.73
2022-09-20T19:33:58.142Z,2.40
2022-09-20T19:37:08.449Z,1.73
2022-09-20T19:39:53.655Z,2.30
2022-09-20T19:42:25.929Z,2.30
2022-09-20T19:45:16.425Z,1.80
2022-09-20T19:48:06.722Z,2.10
2022-09-20T19:50:46.283Z,1.80
2022-09-20T19:53:14.713Z,2.03
2022-09-20T19:55:47.129Z,2.45
2022-09-20T19:58:15.055Z,2.57
2022-09-20T20:00:46.416Z,3.90
2022-09-20T20:03:14.665Z,6.00
2022-09-20T20:06:11.794Z,7.15
2022-09-20T20:08:41.975Z,7.00
2022-09-20T20:11:40.703Z,5.67
2022-09-20T20:15:01.993Z,4.78
2022-09-20T20:18:07.748Z,4.53
2022-09-20T20:20:47.630Z,5.95
2022-09-20T20:23:35.918Z,5.15
2022-09-20T20:26:08.581Z,4.83
2022-09-20T20:28:37.210Z,4.07
2022-09-20T20:31:04.585Z,3.60
2022-09-20T20:33:32.898Z,3.47
2022-09-20T20:36:01.418Z,3.40
2022-09-20T20:38:28.437Z,2.80
2022-09-20T20:41:09.772Z,3.20
2022-09-20T20:43:39.169Z,2.58
2022-09-20T20:46:08.119Z,2.85
2022-09-20T20:48:36.296Z,3.38
2022-09-20T20:51:04.473Z,2.93
2022-09-20T20:53:36.009Z,2.63
2022-09-20T20:56:22.812Z,3.00
2022-09-20T20:58:49.790Z,2.95
2022-09-20T21:01:21.885Z,2.67
2022-09-20T21:03:53.187Z,2.70
2022-09-20T21:06:21.540Z,2.65
2022-09-20T21:08:49.804Z,3.13
2022-09-20T21:11:25.601Z,3.50
2022-09-20T21:13:53.970Z,3.65
2022-09-20T21:16:23.265Z,3.40
2022-09-20T21:18:50.916Z,3.70
2022-09-20T21:21:27.686Z,3.33
2022-09-20T21:23:58.914Z,3.75
2022-09-20T21:26:27.805Z,3.58
2022-09-20T21:28:59.658Z,3.37
2022-09-20T21:31:28.642Z,3.58
2022-09-20T21:33:55.707Z,3.50
2022-09-20T21:36:24.646Z,3.55
2022-09-20T21:38:51.359Z,3.88
2022-09-20T21:41:19.782Z,4.03
2022-09-20T21:43:47.621Z,3.85
2022-09-20T21:46:17.613Z,3.88
2022-09-20T21:48:44.980Z,3.80
2022-09-20T21:51:13.809Z,3.80
2022-09-20T21:53:41.106Z,4.87
2022-09-20T21:56:10.026Z,3.85
2022-09-20T21:58:40.004Z,3.83
2022-09-20T22:01:12.297Z,3.67
2022-09-20T22:03:40.929Z,4.28
2022-09-20T22:06:15.087Z,3.80
2022-09-20T22:08:46.454Z,4.10
2022-09-20T22:11:14.925Z,3.90
2022-09-20T22:13:43.958Z,4.15
2022-09-20T22:16:16.143Z,4.57
2022-09-20T22:18:44.075Z,4.20
2022-09-20T22:21:23.169Z,4.15
2022-09-20T22:23:52.119Z,4.25
2022-09-20T22:26:21.350Z,3.92
2022-09-20T22:28:51.942Z,3.75
2022-09-20T22:31:24.997Z,4.07
2022-09-20T22:33:54.470Z,3.78
2022-09-20T22:36:23.757Z,3.95
2022-09-20T22:38:51.489Z,4.35
2022-09-20T22:41:19.458Z,3.85
2022-09-20T22:43:46.907Z,4.07
2022-09-20T22:46:19.423Z,4.13
2022-09-20T22:48:46.806Z,3.20
2022-09-20T22:51:18.616Z,3.97
2022-09-20T22:53:46.623Z,3.90
2022-09-20T22:56:16.538Z,4.30
2022-09-20T22:58:48.818Z,4.28
2022-09-20T23:01:18.920Z,3.80
2022-09-20T23:03:48.651Z,3.88
2022-09-20T23:06:27.551Z,3.78
2022-09-20T23:08:57.797Z,3.87
2022-09-20T23:11:25.499Z,3.75
2022-09-20T23:13:57.816Z,4.25
2022-09-20T23:16:27.598Z,3.83
2022-09-20T23:18:55.749Z,3.97
2022-09-20T23:21:23.401Z,3.50
2022-09-20T23:23:54.913Z,3.95
2022-09-20T23:26:22.211Z,3.35
2022-09-20T23:28:57.239Z,4.30
2022-09-20T23:31:24.765Z,4.20
2022-09-20T23:33:54.309Z,4.07
2022-09-20T23:36:22.140Z,3.80
2022-09-20T23:38:49.602Z,4.22
2022-09-20T23:41:19.402Z,3.88
2022-09-20T23:43:46.806Z,4.20
2022-09-20T23:46:15.309Z,4.00
2022-09-20T23:48:42.389Z,4.30
2022-09-20T23:51:14.864Z,3.88
2022-09-20T23:53:42.884Z,4.45
2022-09-20T23:56:10.920Z,4.28
2022-09-20T23:58:39.180Z,3.50
